createdAt,value
2022-07-31T00:00:22.127Z,10.30
2022-07-31T00:02:48.995Z,9.82
2022-07-31T00:05:15.865Z,9.43
2022-07-31T00:07:43.250Z,10.38
2022-07-31T00:10:10.207Z,9.98
2022-07-31T00:12:39.477Z,9.35
2022-07-31T00:15:08.270Z,9.85
2022-07-31T00:17:35.077Z,9.90
2022-07-31T00:20:02.363Z,10.25
2022-07-31T00:22:29.474Z,9.65
2022-07-31T00:24:56.927Z,10.15
2022-07-31T00:27:24.161Z,11.20
2022-07-31T00:29:51.597Z,11.82
2022-07-31T00:32:18.639Z,10.20
2022-07-31T00:34:45.453Z,9.95
2022-07-31T00:37:12.358Z,11.88
2022-07-31T00:39:39.166Z,9.02
2022-07-31T00:42:06.356Z,10.02
2022-07-31T00:44:33.469Z,10.60
2022-07-31T00:47:01.781Z,10.45
2022-07-31T00:49:37.503Z,10.40
2022-07-31T00:52:05.881Z,9.45
2022-07-31T00:54:33.428Z,9.40
2022-07-31T00:57:01.219Z,11.20
2022-07-31T00:59:29.320Z,9.02
2022-07-31T01:01:58.221Z,9.88
2022-07-31T01:04:26.250Z,10.68
2022-07-31T01:06:55.021Z,10.60
2022-07-31T01:09:22.177Z,9.98
2022-07-31T01:11:52.171Z,9.57
2022-07-31T01:14:25.774Z,9.35
2022-07-31T01:16:55.260Z,9.48
2022-07-31T01:19:42.382Z,9.48
2022-07-31T01:22:45.667Z,9.40
2022-07-31T01:25:51.501Z,10.02
2022-07-31T01:28:46.121Z,9.57
2022-07-31T01:31:27.770Z,9.25
2022-07-31T01:34:26.948Z,9.85
2022-07-31T01:37:12.584Z,9.52
2022-07-31T01:39:45.299Z,10.10
2022-07-31T01:42:15.127Z,9.25
2022-07-31T01:44:48.261Z,9.15
2022-07-31T01:47:19.296Z,9.10
2022-07-31T01:49:48.853Z,9.65
2022-07-31T01:52:18.006Z,9.98
2022-07-31T01:54:46.806Z,10.07
2022-07-31T01:57:18.587Z,9.90
2022-07-31T01:59:54.773Z,9.52
2022-07-31T02:02:42.331Z,9.48
2022-07-31T02:05:11.925Z,9.68
2022-07-31T02:07:41.111Z,9.02
2022-07-31T02:10:11.080Z,8.98
2022-07-31T02:12:38.898Z,9.27
2022-07-31T02:15:12.380Z,9.32
2022-07-31T02:17:44.136Z,8.70
2022-07-31T02:20:41.134Z,9.48
2022-07-31T02:23:09.602Z,9.20
2022-07-31T02:25:37.226Z,9.73
2022-07-31T02:28:10.200Z,9.43
2022-07-31T02:30:41.011Z,11.13
2022-07-31T02:33:28.680Z,9.77
2022-07-31T02:35:56.727Z,9.00
2022-07-31T02:38:26.816Z,10.93
2022-07-31T02:40:59.638Z,9.82
2022-07-31T02:43:31.606Z,10.90
2022-07-31T02:46:02.972Z,10.52
2022-07-31T02:48:30.924Z,10.50
2022-07-31T02:51:02.673Z,10.38
2022-07-31T02:53:30.867Z,10.27
2022-07-31T02:56:04.352Z,10.30
2022-07-31T02:58:33.852Z,10.32
2022-07-31T03:01:04.839Z,9.80
2022-07-31T03:03:33.394Z,10.07
2022-07-31T03:06:00.784Z,9.98
2022-07-31T03:08:28.577Z,10.32
2022-07-31T03:10:58.946Z,11.10
2022-07-31T03:13:28.757Z,9.60
2022-07-31T03:15:56.214Z,9.98
2022-07-31T03:18:24.546Z,9.20
2022-07-31T03:20:52.682Z,10.23
2022-07-31T03:23:25.381Z,11.10
2022-07-31T03:26:06.134Z,11.45
2022-07-31T03:28:36.762Z,9.68
2022-07-31T03:31:04.525Z,9.65
2022-07-31T03:33:31.703Z,10.20
2022-07-31T03:35:59.088Z,10.18
2022-07-31T03:38:38.912Z,10.55
2022-07-31T03:41:13.679Z,9.77
2022-07-31T03:43:46.827Z,10.20
2022-07-31T03:46:19.966Z,10.07
2022-07-31T03:48:47.908Z,10.82
2022-07-31T03:51:15.659Z,10.63
2022-07-31T03:53:43.581Z,9.65
2022-07-31T03:56:20.097Z,9.48
2022-07-31T03:58:49.757Z,10.27
2022-07-31T04:01:20.982Z,8.82
2022-07-31T04:03:58.015Z,9.80
2022-07-31T04:06:34.390Z,9.73
2022-07-31T04:09:10.524Z,10.38
2022-07-31T04:11:46.920Z,9.75
2022-07-31T04:14:14.460Z,9.13
2022-07-31T04:16:41.671Z,9.68
2022-07-31T04:19:08.566Z,10.73
2022-07-31T04:21:36.427Z,9.85
2022-07-31T04:24:04.944Z,8.95
2022-07-31T04:26:58.290Z,9.43
2022-07-31T04:29:31.891Z,10.27
2022-07-31T04:31:58.714Z,9.05
2022-07-31T04:34:32.644Z,9.80
2022-07-31T04:36:59.792Z,8.95
2022-07-31T04:39:26.879Z,8.60
2022-07-31T04:41:56.195Z,9.27
2022-07-31T04:44:23.513Z,10.88
2022-07-31T04:47:04.707Z,9.70
2022-07-31T04:49:34.977Z,10.30
2022-07-31T04:52:04.546Z,9.45
2022-07-31T04:54:31.725Z,9.70
2022-07-31T04:56:59.834Z,9.40
2022-07-31T04:59:58.985Z,10.00
2022-07-31T05:02:14.689Z,8.88
2022-07-31T05:04:41.839Z,9.30
2022-07-31T05:07:08.688Z,9.48
2022-07-31T05:09:36.533Z,10.18
2022-07-31T05:12:06.441Z,10.05
2022-07-31T05:14:33.803Z,9.65
2022-07-31T05:17:00.942Z,9.90
2022-07-31T05:19:42.490Z,9.50
2022-07-31T05:22:26.052Z,9.52
2022-07-31T05:25:11.020Z,8.85
2022-07-31T05:27:39.157Z,9.68
2022-07-31T05:30:09.917Z,9.85
2022-07-31T05:32:37.823Z,8.90
2022-07-31T05:35:05.006Z,9.07
2022-07-31T05:37:33.863Z,9.40
2022-07-31T05:40:00.929Z,8.85
2022-07-31T05:42:46.365Z,9.13
2022-07-31T05:45:51.835Z,9.27
2022-07-31T05:48:18.766Z,8.55
2022-07-31T05:50:47.365Z,9.27
2022-07-31T05:53:15.369Z,8.93
2022-07-31T05:56:14.279Z,8.50
2022-07-31T05:58:48.425Z,8.07
2022-07-31T06:01:16.227Z,9.30
2022-07-31T06:03:51.408Z,8.95
2022-07-31T06:06:21.277Z,8.73
2022-07-31T06:08:48.318Z,9.00
2022-07-31T06:11:15.146Z,8.68
2022-07-31T06:13:43.369Z,9.10
2022-07-31T06:16:33.244Z,9.80
2022-07-31T06:19:00.262Z,9.50
2022-07-31T06:21:30.557Z,9.70
2022-07-31T06:23:57.947Z,9.75
2022-07-31T06:26:36.226Z,8.80
2022-07-31T06:29:04.032Z,12.75
2022-07-31T06:31:30.949Z,8.88
2022-07-31T06:33:58.962Z,9.15
2022-07-31T06:36:33.989Z,9.20
2022-07-31T06:39:02.795Z,9.02
2022-07-31T06:41:44.710Z,9.32
2022-07-31T06:44:31.629Z,10.07
2022-07-31T06:47:18.497Z,9.70
2022-07-31T06:50:05.657Z,9.95
2022-07-31T06:52:41.718Z,10.50
2022-07-31T06:55:09.375Z,10.45
2022-07-31T06:57:38.097Z,10.02
2022-07-31T07:00:19.807Z,10.95
2022-07-31T07:02:50.882Z,11.23
2022-07-31T07:05:18.043Z,10.25
2022-07-31T07:07:48.106Z,11.07
2022-07-31T07:10:15.179Z,11.40
2022-07-31T07:13:16.284Z,11.10
2022-07-31T07:15:43.956Z,11.23
2022-07-31T07:18:11.106Z,12.65
2022-07-31T07:20:48.757Z,11.30
2022-07-31T07:23:17.158Z,12.00
2022-07-31T07:25:54.039Z,11.15
2022-07-31T07:28:30.078Z,11.55
2022-07-31T07:30:58.771Z,12.00
2022-07-31T07:33:41.738Z,11.68
2022-07-31T07:36:23.208Z,11.93
2022-07-31T07:38:56.253Z,12.48
2022-07-31T07:41:25.202Z,11.82
2022-07-31T07:43:53.223Z,12.23
2022-07-31T07:46:23.656Z,13.20
2022-07-31T07:48:54.139Z,12.55
2022-07-31T07:51:59.302Z,12.05
2022-07-31T07:54:38.940Z,13.18
2022-07-31T07:57:38.152Z,13.30
2022-07-31T08:00:23.538Z,13.05
2022-07-31T08:03:46.765Z,13.20
2022-07-31T08:05:46.350Z,13.57
2022-07-31T08:08:13.808Z,13.55
2022-07-31T08:11:01.848Z,13.52
2022-07-31T08:13:40.613Z,13.68
2022-07-31T08:16:16.733Z,13.82
2022-07-31T08:18:48.677Z,13.80
2022-07-31T08:21:16.541Z,15.10
2022-07-31T08:23:43.563Z,15.20
2022-07-31T08:26:11.601Z,15.05
2022-07-31T08:28:40.504Z,13.93
2022-07-31T08:31:08.527Z,14.43
2022-07-31T08:33:47.696Z,15.20
2022-07-31T08:36:14.634Z,16.73
2022-07-31T08:38:41.601Z,15.25
2022-07-31T08:41:28.693Z,15.10
2022-07-31T08:44:03.175Z,14.63
2022-07-31T08:46:37.529Z,15.20
2022-07-31T08:49:06.240Z,15.68
2022-07-31T08:51:51.537Z,16.33
2022-07-31T08:54:50.233Z,15.88
2022-07-31T08:57:17.779Z,15.10
2022-07-31T08:59:44.894Z,16.45
2022-07-31T09:02:15.845Z,15.27
2022-07-31T09:05:02.423Z,16.73
2022-07-31T09:07:29.292Z,15.73
2022-07-31T09:09:56.233Z,15.80
2022-07-31T09:12:33.301Z,15.43
2022-07-31T09:15:05.414Z,15.63
2022-07-31T09:17:35.080Z,17.45
2022-07-31T09:20:04.157Z,17.27
2022-07-31T09:22:34.403Z,17.17
2022-07-31T09:25:12.512Z,16.58
2022-07-31T09:27:40.573Z,15.75
2022-07-31T09:30:08.521Z,16.77
2022-07-31T09:32:57.274Z,15.68
2022-07-31T09:35:52.793Z,16.25
2022-07-31T09:38:20.615Z,17.52
2022-07-31T09:41:26.790Z,14.85
2022-07-31T09:44:12.123Z,16.17
2022-07-31T09:46:45.456Z,16.10
2022-07-31T09:49:12.769Z,16.33
2022-07-31T09:51:47.083Z,17.50
2022-07-31T09:54:22.087Z,16.23
2022-07-31T09:57:12.704Z,17.17
2022-07-31T09:59:51.492Z,18.38
2022-07-31T10:02:20.121Z,16.63
2022-07-31T10:04:50.224Z,18.88
2022-07-31T10:07:31.563Z,17.10
2022-07-31T10:10:07.079Z,18.42
2022-07-31T10:12:55.486Z,17.63
2022-07-31T10:15:23.842Z,17.95
2022-07-31T10:18:13.499Z,19.30
2022-07-31T10:20:57.309Z,18.10
2022-07-31T10:23:59.640Z,17.30
2022-07-31T10:26:57.441Z,18.83
2022-07-31T10:29:17.201Z,19.23
2022-07-31T10:31:46.439Z,20.35
2022-07-31T10:34:15.869Z,20.92
2022-07-31T10:37:44.579Z,21.85
2022-07-31T10:41:03.616Z,22.55
2022-07-31T10:43:41.816Z,22.60
2022-07-31T10:46:27.157Z,24.27
2022-07-31T10:49:15.141Z,23.30
2022-07-31T10:52:01.311Z,23.15
2022-07-31T10:54:59.549Z,24.52
2022-07-31T10:57:57.464Z,22.35
2022-07-31T11:00:43.102Z,22.35
2022-07-31T11:03:21.813Z,23.13
2022-07-31T11:06:07.591Z,24.10
2022-07-31T11:08:54.795Z,24.30
2022-07-31T11:11:55.761Z,24.90
2022-07-31T11:14:45.627Z,24.00
2022-07-31T11:18:23.679Z,25.42
2022-07-31T11:20:32.755Z,24.40
2022-07-31T11:23:04.827Z,26.73
2022-07-31T11:25:34.968Z,26.20
2022-07-31T11:28:18.851Z,26.08
2022-07-31T11:31:03.430Z,27.42
2022-07-31T11:33:42.845Z,26.70
2022-07-31T11:36:24.226Z,26.60
2022-07-31T11:38:56.563Z,27.35
2022-07-31T11:41:29.730Z,30.27
2022-07-31T11:44:05.528Z,28.73
2022-07-31T11:46:34.625Z,27.63
2022-07-31T11:49:02.277Z,28.30
2022-07-31T11:51:29.675Z,28.27
2022-07-31T11:53:57.944Z,26.88
2022-07-31T11:56:27.501Z,27.38
2022-07-31T11:58:56.464Z,28.80
2022-07-31T12:01:29.028Z,32.10
2022-07-31T12:04:07.568Z,29.67
2022-07-31T12:06:37.019Z,31.48
2022-07-31T12:09:04.353Z,32.50
2022-07-31T12:11:31.260Z,30.67
2022-07-31T12:13:59.393Z,33.65
2022-07-31T12:16:26.334Z,34.30
2022-07-31T12:18:58.745Z,33.53
2022-07-31T12:21:37.018Z,31.30
2022-07-31T12:24:14.328Z,30.08
2022-07-31T12:26:49.358Z,29.88
2022-07-31T12:29:16.207Z,30.48
2022-07-31T12:31:45.834Z,32.53
2022-07-31T12:34:14.147Z,30.85
2022-07-31T12:36:41.622Z,30.90
2022-07-31T12:39:11.731Z,31.10
2022-07-31T12:41:43.255Z,29.90
2022-07-31T12:44:13.444Z,30.88
2022-07-31T12:46:41.718Z,32.20
2022-07-31T12:49:08.951Z,32.10
2022-07-31T12:51:45.464Z,33.13
2022-07-31T12:54:18.049Z,33.28
2022-07-31T12:56:47.005Z,33.88
2022-07-31T12:59:14.297Z,34.47
2022-07-31T13:01:41.918Z,35.95
2022-07-31T13:04:18.188Z,35.58
2022-07-31T13:06:48.632Z,36.38
2022-07-31T13:09:16.140Z,34.08
2022-07-31T13:11:45.634Z,34.85
2022-07-31T13:14:15.260Z,34.20
2022-07-31T13:16:42.103Z,33.58
2022-07-31T13:19:08.923Z,30.55
2022-07-31T13:21:38.669Z,24.77
2022-07-31T13:24:15.797Z,26.17
2022-07-31T13:26:45.205Z,26.15
2022-07-31T13:29:12.722Z,27.00
2022-07-31T13:31:39.578Z,26.55
2022-07-31T13:34:06.868Z,26.48
2022-07-31T13:36:38.880Z,29.38
2022-07-31T13:39:10.716Z,30.25
2022-07-31T13:41:39.212Z,29.95
2022-07-31T13:44:07.134Z,30.02
2022-07-31T13:46:34.439Z,27.63
2022-07-31T13:49:02.251Z,28.08
2022-07-31T13:51:30.137Z,28.05
2022-07-31T13:53:57.208Z,27.08
2022-07-31T13:56:39.145Z,27.02
2022-07-31T13:59:11.367Z,26.08
2022-07-31T14:02:03.222Z,26.77
2022-07-31T14:04:32.773Z,25.63
2022-07-31T14:07:01.371Z,24.00
2022-07-31T14:09:31.113Z,24.67
2022-07-31T14:11:58.038Z,24.67
2022-07-31T14:14:24.899Z,22.17
2022-07-31T14:16:51.731Z,21.77
2022-07-31T14:19:18.701Z,21.48
2022-07-31T14:21:56.039Z,21.65
2022-07-31T14:24:24.622Z,21.50
2022-07-31T14:26:51.489Z,20.45
2022-07-31T14:29:18.394Z,20.52
2022-07-31T14:31:45.282Z,20.30
2022-07-31T14:34:12.343Z,20.48
2022-07-31T14:36:39.317Z,20.27
2022-07-31T14:39:06.267Z,17.67
2022-07-31T14:41:33.446Z,17.25
2022-07-31T14:44:00.613Z,15.35
2022-07-31T14:46:27.516Z,12.90
2022-07-31T14:48:54.499Z,13.75
2022-07-31T14:51:21.429Z,12.43
2022-07-31T14:53:48.311Z,13.05
2022-07-31T14:56:27.310Z,12.82
2022-07-31T14:59:03.129Z,12.63
2022-07-31T15:01:30.667Z,12.85
2022-07-31T15:03:58.622Z,12.95
2022-07-31T15:06:41.657Z,12.50
2022-07-31T15:09:16.353Z,12.60
2022-07-31T15:12:01.208Z,12.85
2022-07-31T15:14:30.340Z,12.68
2022-07-31T15:16:57.855Z,12.27
2022-07-31T15:19:24.728Z,12.02
2022-07-31T15:22:15.665Z,13.07
2022-07-31T15:24:42.475Z,12.32
2022-07-31T15:27:13.714Z,13.02
2022-07-31T15:30:00.672Z,12.63
2022-07-31T15:32:27.974Z,13.43
2022-07-31T15:34:54.831Z,7.93
2022-07-31T15:37:21.747Z,9.13
2022-07-31T15:40:01.964Z,10.35
2022-07-31T15:42:38.057Z,10.93
2022-07-31T15:45:06.106Z,11.30
2022-07-31T15:47:32.951Z,11.25
2022-07-31T15:49:59.831Z,11.70
2022-07-31T15:52:26.946Z,11.93
2022-07-31T15:54:54.017Z,12.90
2022-07-31T15:57:21.907Z,13.23
2022-07-31T15:59:49.843Z,12.80
2022-07-31T16:02:17.309Z,11.95
2022-07-31T16:04:53.097Z,11.80
2022-07-31T16:08:34.250Z,12.98
2022-07-31T16:10:16.821Z,13.63
2022-07-31T16:12:48.129Z,13.73
2022-07-31T16:15:17.859Z,13.60
2022-07-31T16:17:45.394Z,14.40
2022-07-31T16:20:25.910Z,14.25
2022-07-31T16:23:02.750Z,14.73
2022-07-31T16:25:32.097Z,13.82
2022-07-31T16:28:04.034Z,13.52
2022-07-31T16:30:31.887Z,13.15
2022-07-31T16:32:58.849Z,12.13
2022-07-31T16:35:29.006Z,13.30
2022-07-31T16:37:55.978Z,12.68
2022-07-31T16:40:28.837Z,11.98
2022-07-31T16:43:49.489Z,12.63
2022-07-31T16:45:54.169Z,12.40
2022-07-31T16:48:21.406Z,13.00
2022-07-31T16:50:53.288Z,13.27
2022-07-31T16:54:11.111Z,12.95
2022-07-31T16:56:13.233Z,12.60
2022-07-31T16:58:40.183Z,12.48
2022-07-31T17:01:53.827Z,10.70
2022-07-31T17:04:01.427Z,12.18
2022-07-31T17:06:36.299Z,12.80
2022-07-31T17:09:16.048Z,12.30
2022-07-31T17:11:46.042Z,11.93
2022-07-31T17:14:12.974Z,12.88
2022-07-31T17:16:44.856Z,12.75
2022-07-31T17:19:13.949Z,12.13
2022-07-31T17:21:44.553Z,13.07
2022-07-31T17:24:15.692Z,12.32
2022-07-31T17:26:44.066Z,11.98
2022-07-31T17:29:12.306Z,11.40
2022-07-31T17:31:39.312Z,11.43
2022-07-31T17:34:09.267Z,11.98
2022-07-31T17:36:36.679Z,11.60
2022-07-31T17:39:04.536Z,11.48
2022-07-31T17:41:31.730Z,11.65
2022-07-31T17:43:58.551Z,11.55
2022-07-31T17:46:34.767Z,11.93
2022-07-31T17:49:19.227Z,10.85
2022-07-31T17:51:59.326Z,11.23
2022-07-31T17:54:31.681Z,10.98
2022-07-31T17:56:59.332Z,11.02
2022-07-31T17:59:26.668Z,11.63
2022-07-31T18:01:59.676Z,11.35
2022-07-31T18:04:32.466Z,11.93
2022-07-31T18:07:00.964Z,7.25
2022-07-31T18:09:28.578Z,6.22
2022-07-31T18:11:56.479Z,6.90
2022-07-31T18:14:24.288Z,10.70
2022-07-31T18:16:52.384Z,11.45
2022-07-31T18:19:20.149Z,11.43
2022-07-31T18:21:47.304Z,11.15
2022-07-31T18:24:14.174Z,11.98
2022-07-31T18:26:40.978Z,11.35
2022-07-31T18:29:07.845Z,11.60
2022-07-31T18:31:35.866Z,7.03
2022-07-31T18:34:04.728Z,9.05
2022-07-31T18:36:32.841Z,9.45
2022-07-31T18:39:00.148Z,9.05
2022-07-31T18:41:27.724Z,11.63
2022-07-31T18:43:55.593Z,11.57
2022-07-31T18:46:24.644Z,11.77
2022-07-31T18:48:55.297Z,10.05
2022-07-31T18:51:23.273Z,10.88
2022-07-31T18:53:50.672Z,12.48
2022-07-31T18:56:17.589Z,12.27
2022-07-31T18:58:44.583Z,12.07
2022-07-31T19:01:11.922Z,11.77
2022-07-31T19:03:38.798Z,12.57
2022-07-31T19:06:05.734Z,11.98
2022-07-31T19:08:32.699Z,12.43
2022-07-31T19:10:59.621Z,9.75
2022-07-31T19:13:26.517Z,12.35
2022-07-31T19:15:53.502Z,11.85
2022-07-31T19:18:27.895Z,13.07
2022-07-31T19:21:23.395Z,12.77
2022-07-31T19:23:43.906Z,12.85
2022-07-31T19:26:10.927Z,12.38
2022-07-31T19:28:39.675Z,12.43
2022-07-31T19:31:07.263Z,10.95
2022-07-31T19:33:34.753Z,12.82
2022-07-31T19:36:03.120Z,12.63
2022-07-31T19:38:35.601Z,13.43
2022-07-31T19:41:03.190Z,13.23
2022-07-31T19:43:30.268Z,13.40
2022-07-31T19:46:10.632Z,13.05
2022-07-31T19:48:43.925Z,12.45
2022-07-31T19:51:12.440Z,11.18
2022-07-31T19:53:39.673Z,11.90
2022-07-31T19:56:07.010Z,11.63
2022-07-31T19:58:35.443Z,11.82
2022-07-31T20:01:03.708Z,12.52
2022-07-31T20:03:30.718Z,11.88
2022-07-31T20:05:57.891Z,12.68
2022-07-31T20:08:24.774Z,12.18
2022-07-31T20:10:51.735Z,12.95
2022-07-31T20:13:19.677Z,13.73
2022-07-31T20:15:52.145Z,13.25
2022-07-31T20:18:27.953Z,13.98
2022-07-31T20:20:57.422Z,13.77
2022-07-31T20:23:25.812Z,13.77
2022-07-31T20:25:53.055Z,14.00
2022-07-31T20:28:19.915Z,14.23
2022-07-31T20:30:46.838Z,13.65
2022-07-31T20:33:13.901Z,14.73
2022-07-31T20:35:48.615Z,14.05
2022-07-31T20:38:21.326Z,11.63
2022-07-31T20:40:53.408Z,15.82
2022-07-31T20:43:26.461Z,14.70
2022-07-31T20:45:57.144Z,16.30
2022-07-31T20:48:32.274Z,17.00
2022-07-31T20:51:00.431Z,16.02
2022-07-31T20:53:28.218Z,17.30
2022-07-31T20:55:55.413Z,16.73
2022-07-31T20:58:23.714Z,15.68
2022-07-31T21:00:51.926Z,16.45
2022-07-31T21:03:19.153Z,17.63
2022-07-31T21:05:46.620Z,18.15
2022-07-31T21:08:13.631Z,17.83
2022-07-31T21:10:40.706Z,18.55
2022-07-31T21:13:09.164Z,19.30
2022-07-31T21:15:43.584Z,20.27
2022-07-31T21:18:16.192Z,21.55
2022-07-31T21:20:50.837Z,21.95
2022-07-31T21:23:22.642Z,21.13
2022-07-31T21:25:50.799Z,21.92
2022-07-31T21:28:18.166Z,21.13
2022-07-31T21:30:45.509Z,23.33
2022-07-31T21:33:12.672Z,21.25
2022-07-31T21:35:40.200Z,23.17
2022-07-31T21:38:12.146Z,20.48
2022-07-31T21:40:39.885Z,23.20
2022-07-31T21:43:07.309Z,24.77
2022-07-31T21:45:51.369Z,23.85
2022-07-31T21:48:23.705Z,26.13
2022-07-31T21:50:50.839Z,24.65
2022-07-31T21:53:17.669Z,23.75
2022-07-31T21:55:44.470Z,22.63
2022-07-31T21:58:14.470Z,23.38
2022-07-31T22:00:41.560Z,23.63
2022-07-31T22:03:08.573Z,23.77
2022-07-31T22:05:53.855Z,22.48
2022-07-31T22:08:21.238Z,25.30
2022-07-31T22:10:51.280Z,28.27
2022-07-31T22:13:19.598Z,29.63
2022-07-31T22:15:54.264Z,29.15
2022-07-31T22:18:29.888Z,26.10
2022-07-31T22:20:57.973Z,23.33
2022-07-31T22:23:26.320Z,23.92
2022-07-31T22:25:53.421Z,20.65
2022-07-31T22:28:22.036Z,20.95
2022-07-31T22:30:49.752Z,20.25
2022-07-31T22:33:16.762Z,19.25
2022-07-31T22:35:43.726Z,19.60
2022-07-31T22:38:15.540Z,19.63
2022-07-31T22:40:42.600Z,20.58
2022-07-31T22:44:13.707Z,22.17
2022-07-31T22:46:00.694Z,21.60
2022-07-31T22:48:27.950Z,23.00
2022-07-31T22:50:56.186Z,22.67
2022-07-31T22:53:24.095Z,22.70
2022-07-31T22:55:54.147Z,23.02
2022-07-31T22:58:21.549Z,22.42
2022-07-31T23:00:49.914Z,21.80
2022-07-31T23:03:17.438Z,20.30
2022-07-31T23:06:02.397Z,19.55
2022-07-31T23:08:31.042Z,20.23
2022-07-31T23:10:57.913Z,21.05
2022-07-31T23:13:24.761Z,20.35
2022-07-31T23:15:51.598Z,20.73
2022-07-31T23:18:18.450Z,20.35
2022-07-31T23:20:45.327Z,20.08
2022-07-31T23:23:12.125Z,20.02
2022-07-31T23:25:38.932Z,18.17
2022-07-31T23:28:05.824Z,18.48
2022-07-31T23:30:32.639Z,20.48
2022-07-31T23:32:59.440Z,19.10
2022-07-31T23:35:26.287Z,21.25
2022-07-31T23:37:53.131Z,19.15
2022-07-31T23:40:20.065Z,18.60
2022-07-31T23:42:48.725Z,19.20
2022-07-31T23:45:15.898Z,17.67
2022-07-31T23:47:44.598Z,16.85
2022-07-31T23:50:12.234Z,15.73
2022-07-31T23:52:39.051Z,18.25
2022-07-31T23:55:06.149Z,18.05
2022-07-31T23:57:34.382Z,19.50
